Time;durP1;ratioP1;P1;durP2;ratioP2;P2;SDS_P1;SDS_P2;PMS_P1;PMS_P2;Temp;Humidity;BMP_temperature;BMP_pressure;BME280_temperature;BME280_humidity;BME280_pressure;Samples;Min_cycle;Max_cycle;Signal;HPM_P1;HPM_P2
2022/06/12 00:01:48;;;;;;;0.90;0.43;;;13.00;99.90;;;;;;5068392;28;20166;-71
2022/06/12 00:04:14;;;;;;;0.68;0.43;;;13.00;99.90;;;;;;5068325;28;20071;-72
2022/06/12 00:06:42;;;;;;;0.75;0.40;;;13.00;99.90;;;;;;5052199;28;20048;-72
2022/06/12 00:09:08;;;;;;;1.52;0.47;;;12.90;99.90;;;;;;5069180;28;20048;-71
2022/06/12 00:11:34;;;;;;;1.48;0.50;;;12.90;99.90;;;;;;5069528;28;20423;-71
2022/06/12 00:14:04;;;;;;;1.98;0.70;;;12.90;99.90;;;;;;5051475;28;20502;-71
2022/06/12 00:16:32;;;;;;;1.40;0.63;;;12.90;99.90;;;;;;5068241;28;20059;-71
2022/06/12 00:18:58;;;;;;;1.45;0.63;;;12.90;99.90;;;;;;5064743;28;20049;-71
2022/06/12 00:21:25;;;;;;;0.77;0.40;;;12.80;99.90;;;;;;5061500;28;20032;-70
2022/06/12 00:23:50;;;;;;;1.17;0.40;;;12.90;99.90;;;;;;5069895;28;20048;-71
2022/06/12 00:26:23;;;;;;;1.23;0.45;;;12.80;99.90;;;;;;5055697;28;20419;-70
2022/06/12 00:29:00;;;;;;;1.08;0.57;;;12.80;99.90;;;;;;5070003;28;20052;-71
2022/06/12 00:31:26;;;;;;;0.85;0.40;;;12.80;99.90;;;;;;5061246;28;20069;-70
2022/06/12 00:33:52;;;;;;;0.60;0.38;;;12.70;99.90;;;;;;5070499;28;20056;-71
2022/06/12 00:36:18;;;;;;;1.13;0.47;;;12.70;99.90;;;;;;5070435;28;20040;-71
2022/06/12 00:38:44;;;;;;;1.83;0.38;;;12.60;99.90;;;;;;5064376;28;20040;-70
2022/06/12 00:41:09;;;;;;;1.55;0.50;;;12.60;99.90;;;;;;5069431;28;20036;-71
2022/06/12 00:43:35;;;;;;;0.93;0.32;;;12.60;99.90;;;;;;5066793;28;20687;-71
2022/06/12 00:46:01;;;;;;;1.13;0.40;;;12.60;99.90;;;;;;5068422;28;20044;-71
2022/06/12 00:48:32;;;;;;;;;;;12.60;99.90;;;;;;5069339;28;20156;-71
2022/06/12 00:51:06;;;;;;;1.05;0.40;;;12.60;99.90;;;;;;5049774;28;19924;-71
2022/06/12 00:53:41;;;;;;;0.70;0.40;;;12.50;99.90;;;;;;5078858;28;20159;-71
2022/06/12 00:56:10;;;;;;;1.00;0.40;;;12.50;99.90;;;;;;5083134;28;20044;-71
2022/06/12 00:58:41;;;;;;;1.25;0.57;;;12.40;99.90;;;;;;5066372;28;20396;-71
2022/06/12 01:01:12;;;;;;;1.58;0.40;;;12.40;99.90;;;;;;5076888;28;20049;-71
2022/06/12 01:06:33;;;;;;;1.02;0.40;;;12.40;99.90;;;;;;5066204;28;20055;-70
2022/06/12 01:06:35;;;;;;;2.95;0.60;;;12.30;99.90;;;;;;5050350;28;20040;-71
2022/06/12 01:09:28;;;;;;;0.60;0.40;;;12.30;99.90;;;;;;5068456;28;20519;-71
2022/06/12 01:11:57;;;;;;;1.52;0.30;;;12.30;99.90;;;;;;5062639;28;20052;-71
2022/06/12 01:14:29;;;;;;;1.55;0.52;;;12.30;99.90;;;;;;5067461;28;20044;-71
2022/06/12 01:16:56;;;;;;;1.25;0.40;;;12.30;99.90;;;;;;5068729;28;20164;-71
2022/06/12 01:19:32;;;;;;;1.00;0.43;;;12.20;99.90;;;;;;5046488;28;20037;-71
2022/06/12 01:22:16;;;;;;;1.75;0.75;;;12.20;99.90;;;;;;5059106;28;20044;-71
2022/06/12 01:24:41;;;;;;;0.70;0.35;;;12.20;99.90;;;;;;5051479;28;20048;-71
2022/06/12 01:27:22;;;;;;;0.85;0.30;;;12.20;99.90;;;;;;5066088;28;20401;-70
2022/06/12 01:30:02;;;;;;;0.30;0.30;;;12.20;99.90;;;;;;5084118;28;20036;-71
2022/06/12 01:32:33;;;;;;;0.70;0.50;;;12.20;99.90;;;;;;5068087;28;20109;-71
2022/06/12 01:35:08;;;;;;;0.88;0.40;;;12.20;99.90;;;;;;5067424;28;20044;-71
2022/06/12 01:38:01;;;;;;;0.82;0.50;;;12.20;99.90;;;;;;5065438;28;20035;-71
2022/06/12 01:40:44;;;;;;;1.08;0.45;;;12.20;99.90;;;;;;5065069;28;20044;-70
2022/06/12 01:43:45;;;;;;;2.50;0.70;;;12.20;99.90;;;;;;5068362;28;20036;-71
2022/06/12 01:46:33;;;;;;;1.50;0.50;;;12.10;99.90;;;;;;5060471;28;20492;-71
2022/06/12 01:49:08;;;;;;;0.95;0.57;;;12.10;99.90;;;;;;5068270;28;20047;-71
2022/06/12 01:51:40;;;;;;;0.88;0.50;;;12.10;99.90;;;;;;5068924;28;20495;-71
2022/06/12 01:54:20;;;;;;;1.83;0.73;;;12.10;99.90;;;;;;5068195;28;20080;-71
2022/06/12 01:57:13;;;;;;;1.13;0.50;;;12.20;99.90;;;;;;5056228;28;20051;-71
2022/06/12 01:59:54;;;;;;;2.50;0.90;;;12.10;99.90;;;;;;5064205;28;20403;-71
2022/06/12 02:02:30;;;;;;;1.88;0.70;;;12.10;99.90;;;;;;5064834;28;20043;-71
2022/06/12 02:05:14;;;;;;;0.75;0.40;;;12.10;99.90;;;;;;5051370;28;20051;-71
2022/06/12 02:08:01;;;;;;;1.45;0.80;;;12.10;99.90;;;;;;5065200;28;20120;-70
2022/06/12 02:10:49;;;;;;;2.78;0.70;;;12.10;99.90;;;;;;5070850;28;20121;-70
2022/06/12 02:13:29;;;;;;;1.35;0.50;;;12.10;99.90;;;;;;5069471;28;20476;-71
2022/06/12 02:16:27;;;;;;;1.10;0.68;;;12.10;99.90;;;;;;5071371;28;20092;-71
2022/06/12 02:18:58;;;;;;;0.52;0.40;;;12.10;99.90;;;;;;5067507;28;20064;-70
2022/06/12 02:21:37;;;;;;;1.00;0.50;;;12.00;99.90;;;;;;5072459;28;20043;-71
2022/06/12 02:24:21;;;;;;;1.10;0.50;;;12.00;99.90;;;;;;5079377;28;20040;-71
2022/06/12 02:27:00;;;;;;;1.88;0.50;;;12.10;99.90;;;;;;5057178;28;20112;-71
2022/06/12 02:29:44;;;;;;;0.88;0.40;;;12.00;99.90;;;;;;5053893;28;20373;-71
2022/06/12 02:32:17;;;;;;;1.08;0.57;;;12.00;99.90;;;;;;5054431;28;20488;-71
2022/06/12 02:34:52;;;;;;;0.90;0.40;;;12.00;99.90;;;;;;5070288;28;20094;-72
2022/06/12 02:37:23;;;;;;;1.50;0.63;;;11.90;99.90;;;;;;5077642;28;20551;-71
2022/06/12 02:39:55;;;;;;;2.25;0.70;;;11.90;99.90;;;;;;5067997;28;20045;-71
2022/06/12 02:42:29;;;;;;;1.70;0.60;;;11.90;99.90;;;;;;5069878;28;20048;-71
2022/06/12 02:45:06;;;;;;;1.00;0.40;;;11.90;99.90;;;;;;5070099;28;20508;-71
2022/06/12 02:47:35;;;;;;;1.50;0.77;;;11.80;99.90;;;;;;5066392;28;20052;-71
2022/06/12 02:50:01;;;;;;;0.80;0.50;;;11.80;99.90;;;;;;5068844;28;20040;-71
2022/06/12 02:52:40;;;;;;;1.38;0.60;;;11.80;99.90;;;;;;5060569;28;20044;-71
2022/06/12 02:55:25;;;;;;;1.35;0.68;;;11.80;99.90;;;;;;5054952;28;20472;-70
2022/06/12 02:58:19;;;;;;;0.52;0.47;;;11.80;99.90;;;;;;5068005;28;20495;-71
2022/06/12 03:01:08;;;;;;;0.60;0.50;;;11.70;99.90;;;;;;5060539;28;20040;-71
2022/06/12 03:03:56;;;;;;;1.55;0.80;;;11.80;99.90;;;;;;5070723;28;20040;-71
2022/06/12 03:06:27;;;;;;;2.30;0.50;;;11.80;99.90;;;;;;5053036;28;20076;-71
2022/06/12 03:08:56;;;;;;;1.38;0.60;;;11.80;99.90;;;;;;5066707;28;20119;-71
2022/06/12 03:11:39;;;;;;;1.08;0.50;;;11.80;99.90;;;;;;5067657;28;20078;-71
2022/06/12 03:14:11;;;;;;;2.13;0.63;;;11.80;99.90;;;;;;5069553;28;20048;-71
2022/06/12 03:16:41;;;;;;;1.50;0.73;;;11.70;99.90;;;;;;5083459;28;20048;-71
2022/06/12 03:19:28;;;;;;;2.25;0.73;;;11.70;99.90;;;;;;5069831;28;20361;-71
2022/06/12 03:22:45;;;;;;;1.25;0.50;;;11.80;99.90;;;;;;5065558;28;20089;-70
2022/06/12 03:25:27;;;;;;;1.30;0.60;;;11.70;99.90;;;;;;4972149;28;20046;-71
2022/06/12 03:28:03;;;;;;;1.83;0.63;;;11.70;99.90;;;;;;5053581;28;20408;-71
2022/06/12 03:30:37;;;;;;;2.03;0.73;;;11.70;99.90;;;;;;5069016;28;20167;-71
2022/06/12 03:33:10;;;;;;;1.75;0.80;;;11.70;99.90;;;;;;5069898;28;20041;-71
2022/06/12 03:35:46;;;;;;;1.05;0.50;;;11.70;99.90;;;;;;5069722;28;20140;-71
2022/06/12 03:38:22;;;;;;;1.00;0.50;;;11.70;99.90;;;;;;5068714;28;20404;-71
2022/06/12 03:41:19;;;;;;;1.95;0.75;;;11.70;99.90;;;;;;5067640;28;20090;-71
2022/06/12 03:43:54;;;;;;;1.95;0.68;;;11.70;99.90;;;;;;5053089;28;20044;-71
2022/06/12 03:46:40;;;;;;;0.95;0.57;;;11.70;99.90;;;;;;5061968;28;20422;-71
2022/06/12 03:49:29;;;;;;;0.90;0.50;;;11.70;99.90;;;;;;5069631;28;20037;-71
2022/06/12 03:52:12;;;;;;;1.80;0.50;;;11.70;99.90;;;;;;5051526;28;20153;-71
2022/06/12 03:55:10;;;;;;;1.20;0.50;;;11.70;99.90;;;;;;5070072;28;20048;-71
2022/06/12 03:57:52;;;;;;;1.30;0.50;;;11.80;99.90;;;;;;5059375;28;20079;-71
2022/06/12 04:00:34;;;;;;;1.10;0.60;;;11.80;99.90;;;;;;5067995;28;20037;-71
2022/06/12 04:03:18;;;;;;;1.17;0.50;;;11.90;99.90;;;;;;5061198;28;20045;-71
2022/06/12 04:06:06;;;;;;;0.70;0.40;;;11.80;99.90;;;;;;5063091;28;20087;-71
2022/06/12 04:08:34;;;;;;;1.70;0.75;;;11.80;99.90;;;;;;5051173;28;20119;-71
2022/06/12 04:11:01;;;;;;;1.80;0.52;;;11.90;99.90;;;;;;5051176;28;20048;-71
2022/06/12 04:13:27;;;;;;;0.90;0.47;;;11.90;99.90;;;;;;5067753;28;20053;-71
2022/06/12 04:16:14;;;;;;;1.30;0.50;;;11.90;99.90;;;;;;5068931;28;20040;-71
2022/06/12 04:18:40;;;;;;;1.48;0.50;;;12.00;99.90;;;;;;5068905;28;20036;-71
2022/06/12 04:21:30;;;;;;;0.85;0.50;;;12.10;99.90;;;;;;5067882;28;20043;-71
2022/06/12 04:24:03;;;;;;;0.55;0.40;;;12.20;99.90;;;;;;5059615;28;20496;-71
2022/06/12 04:26:43;;;;;;;1.35;0.40;;;12.30;99.90;;;;;;5055542;28;20051;-71
2022/06/12 04:29:12;;;;;;;2.25;0.73;;;12.30;99.90;;;;;;5069614;28;20127;-71
2022/06/12 04:31:42;;;;;;;1.08;0.50;;;12.40;99.90;;;;;;5050772;28;20056;-71
2022/06/12 04:34:16;;;;;;;4.28;0.75;;;12.50;99.90;;;;;;5044138;28;20033;-71
2022/06/12 04:36:52;;;;;;;1.60;0.60;;;12.50;99.90;;;;;;5068726;28;20115;-70
2022/06/12 04:39:21;;;;;;;2.58;0.65;;;12.60;99.90;;;;;;5084150;28;20487;-70
2022/06/12 04:41:47;;;;;;;1.77;0.57;;;12.60;99.90;;;;;;5067299;28;20136;-71
2022/06/12 04:44:13;;;;;;;2.72;0.88;;;12.60;99.90;;;;;;5064906;28;20114;-71
2022/06/12 04:46:42;;;;;;;3.08;0.80;;;12.80;99.90;;;;;;5067049;28;20040;-71
2022/06/12 04:49:12;;;;;;;1.65;0.60;;;12.70;99.90;;;;;;5067645;28;20127;-71
2022/06/12 04:51:38;;;;;;;2.47;0.65;;;12.70;99.90;;;;;;5054346;28;20137;-71
2022/06/12 04:54:05;;;;;;;1.30;0.60;;;12.70;99.90;;;;;;5072360;28;20083;-71
2022/06/12 04:56:31;;;;;;;2.80;0.63;;;12.70;99.90;;;;;;5059264;28;20045;-71
2022/06/12 04:58:57;;;;;;;2.85;0.70;;;12.70;99.90;;;;;;5067156;28;20055;-71
2022/06/12 05:01:24;;;;;;;2.22;0.60;;;12.70;99.90;;;;;;5049533;28;20048;-71
2022/06/12 05:03:50;;;;;;;1.52;0.50;;;12.80;99.90;;;;;;5062980;28;20459;-71
2022/06/12 05:06:17;;;;;;;1.63;0.60;;;12.70;99.90;;;;;;5047904;28;20052;-71
2022/06/12 05:08:43;;;;;;;2.35;0.80;;;12.70;99.90;;;;;;5065741;28;20052;-71
2022/06/12 05:11:09;;;;;;;2.47;0.88;;;12.80;99.90;;;;;;5061999;28;20063;-71
2022/06/12 05:13:35;;;;;;;3.22;0.90;;;12.90;99.90;;;;;;5060485;28;20044;-71
2022/06/12 05:16:01;;;;;;;2.28;0.70;;;12.90;99.90;;;;;;5063001;28;20090;-71
2022/06/12 05:18:28;;;;;;;2.03;0.60;;;12.90;99.90;;;;;;5032948;28;20044;-71
2022/06/12 05:20:54;;;;;;;1.55;0.43;;;13.00;99.90;;;;;;5070470;28;20446;-72
2022/06/12 05:23:21;;;;;;;2.95;0.68;;;13.10;99.90;;;;;;5042009;28;20049;-70
2022/06/12 05:25:48;;;;;;;2.20;0.73;;;13.20;99.90;;;;;;5063560;28;20572;-70
2022/06/12 05:28:14;;;;;;;2.63;0.80;;;13.20;99.90;;;;;;5067575;28;20048;-77
2022/06/12 05:30:42;;;;;;;2.97;0.77;;;13.30;99.90;;;;;;5064789;28;20491;-77
2022/06/12 05:33:08;;;;;;;3.17;0.82;;;13.40;99.90;;;;;;5064724;28;20138;-76
2022/06/12 05:35:37;;;;;;;2.40;0.82;;;13.50;99.90;;;;;;5066697;28;20044;-77
2022/06/12 05:38:03;;;;;;;2.50;1.10;;;13.50;99.90;;;;;;5060409;28;20037;-77
2022/06/12 05:40:33;;;;;;;1.92;0.70;;;13.60;99.90;;;;;;5066238;28;20066;-76
2022/06/12 05:43:00;;;;;;;1.77;0.60;;;13.70;99.90;;;;;;5064155;28;20228;-75
2022/06/12 05:45:27;;;;;;;1.75;0.68;;;13.90;99.90;;;;;;5052523;28;20049;-75
2022/06/12 05:47:54;;;;;;;2.67;0.75;;;14.00;99.90;;;;;;5080465;28;20036;-76
2022/06/12 05:50:24;;;;;;;4.07;1.00;;;14.10;99.90;;;;;;5069000;28;20115;-75
2022/06/12 05:52:49;;;;;;;3.10;0.75;;;14.20;99.90;;;;;;5071468;28;20067;-75
2022/06/12 05:55:16;;;;;;;3.58;1.00;;;14.40;99.90;;;;;;5077253;28;20084;-75
2022/06/12 05:57:42;;;;;;;2.85;1.00;;;14.50;99.90;;;;;;5086856;28;20554;-75
2022/06/12 06:00:15;;;;;;;3.72;1.20;;;14.60;99.90;;;;;;5086281;28;20040;-76
2022/06/12 06:02:42;;;;;;;4.05;1.15;;;14.70;99.90;;;;;;5088936;28;20047;-76
2022/06/12 06:05:08;;;;;;;3.22;1.10;;;14.90;99.90;;;;;;5080223;28;20104;-75
2022/06/12 06:07:36;;;;;;;4.22;1.40;;;15.00;99.90;;;;;;5062624;28;20049;-75
2022/06/12 06:10:04;;;;;;;8.88;2.00;;;15.10;99.90;;;;;;5073667;28;20036;-76
2022/06/12 06:12:30;;;;;;;5.30;1.45;;;15.30;99.90;;;;;;5077501;28;20451;-76
2022/06/12 06:14:55;;;;;;;6.40;1.50;;;15.50;99.90;;;;;;5067247;28;20047;-76
2022/06/12 06:17:21;;;;;;;5.10;1.50;;;15.50;99.90;;;;;;5054777;28;20450;-76
2022/06/12 06:19:47;;;;;;;3.67;1.38;;;15.80;99.90;;;;;;5053471;28;20046;-76
2022/06/12 06:22:16;;;;;;;7.40;1.77;;;15.90;99.90;;;;;;5069593;28;20049;-75
2022/06/12 06:24:42;;;;;;;5.43;1.77;;;16.20;99.90;;;;;;5089231;28;20115;-76
2022/06/12 06:27:09;;;;;;;7.38;2.03;;;16.40;99.90;;;;;;5079924;28;20213;-75
2022/06/12 06:29:36;;;;;;;5.53;1.48;;;16.50;99.90;;;;;;5052370;28;20059;-76
2022/06/12 06:32:03;;;;;;;5.88;1.55;;;16.60;99.90;;;;;;5054430;28;20047;-76
2022/06/12 06:34:29;;;;;;;5.20;1.77;;;16.50;99.90;;;;;;5052143;28;20040;-76
2022/06/12 06:36:54;;;;;;;10.93;2.55;;;16.40;99.90;;;;;;5082295;28;20047;-75
2022/06/12 06:39:20;;;;;;;7.72;2.08;;;16.30;99.90;;;;;;5087820;28;20051;-75
2022/06/12 06:41:46;;;;;;;4.13;1.70;;;16.30;99.90;;;;;;5071138;28;20044;-75
2022/06/12 06:46:57;;;;;;;4.85;1.63;;;16.50;99.90;;;;;;5066642;28;20048;-75
2022/06/12 06:49:23;;;;;;;8.65;2.15;;;16.50;99.90;;;;;;5072380;28;20044;-75
2022/06/12 06:51:49;;;;;;;6.07;1.90;;;16.60;99.90;;;;;;5078148;28;20701;-76
2022/06/12 06:54:16;;;;;;;10.75;2.63;;;16.60;99.90;;;;;;5080594;28;20029;-76
2022/06/12 06:56:43;;;;;;;8.93;2.22;;;16.70;99.90;;;;;;5058417;28;20102;-75
2022/06/12 06:59:09;;;;;;;7.07;1.88;;;16.90;99.90;;;;;;5071406;28;20096;-75
2022/06/12 07:01:34;;;;;;;7.38;2.20;;;17.10;99.90;;;;;;5063870;28;20095;-75
2022/06/12 07:04:01;;;;;;;4.97;2.35;;;17.00;99.90;;;;;;5055438;28;20051;-74
2022/06/12 07:06:28;;;;;;;6.18;2.00;;;17.00;99.90;;;;;;5065193;28;20090;-74
2022/06/12 07:08:55;;;;;;;5.78;1.70;;;17.20;99.90;;;;;;5048766;28;20496;-74
2022/06/12 07:11:23;;;;;;;6.85;1.90;;;17.40;99.90;;;;;;5053206;28;20057;-75
2022/06/12 07:13:49;;;;;;;7.97;2.38;;;17.50;99.90;;;;;;5067913;28;20051;-74
2022/06/12 07:16:15;;;;;;;;;;;17.40;99.90;;;;;;5043211;28;20071;-74
2022/06/12 07:18:41;;;;;;;9.80;2.23;;;17.60;99.90;;;;;;5071904;28;19925;-75
2022/06/12 07:21:07;;;;;;;9.07;2.58;;;17.70;99.90;;;;;;5036179;28;20287;-74
2022/06/12 07:23:34;;;;;;;9.55;2.60;;;17.80;99.90;;;;;;5070760;28;20048;-74
2022/06/12 07:26:05;;;;;;;7.40;2.25;;;18.00;99.90;;;;;;5064546;28;20048;-75
2022/06/12 07:28:32;;;;;;;6.65;1.75;;;18.20;99.90;;;;;;5070836;28;20044;-74
2022/06/12 07:30:58;;;;;;;6.50;2.10;;;18.30;99.90;;;;;;5070642;28;20073;-74
2022/06/12 07:33:23;;;;;;;;;;;18.50;99.90;;;;;;5072330;28;20068;-74
2022/06/12 07:35:50;;;;;;;6.97;2.00;;;18.60;99.90;;;;;;5049918;28;19944;-73
2022/06/12 07:38:19;;;;;;;7.00;1.70;;;18.70;99.90;;;;;;5054069;28;20083;-74
2022/06/12 07:41:00;;;;;;;7.13;1.90;;;18.80;99.90;;;;;;5083176;28;20048;-75
2022/06/12 07:43:28;;;;;;;5.05;1.55;;;19.00;99.90;;;;;;5069454;28;20044;-75
2022/06/12 07:45:55;;;;;;;4.47;1.27;;;19.00;99.90;;;;;;5068927;28;20052;-75
2022/06/12 07:48:22;;;;;;;5.68;1.48;;;19.00;99.90;;;;;;5079502;28;20071;-75
2022/06/12 07:50:49;;;;;;;3.83;1.20;;;19.20;99.90;;;;;;5068900;28;20475;-76
2022/06/12 07:53:16;;;;;;;5.10;1.60;;;19.30;99.90;;;;;;5068035;28;20036;-75
2022/06/12 07:55:42;;;;;;;5.40;1.80;;;19.20;99.90;;;;;;5054498;28;20146;-75
2022/06/12 07:58:09;;;;;;;5.75;1.80;;;19.20;99.90;;;;;;5073074;28;20181;-74
2022/06/12 08:00:37;;;;;;;6.30;2.03;;;19.20;99.90;;;;;;5079533;28;20036;-75
2022/06/12 08:03:04;;;;;;;6.13;1.83;;;19.40;99.90;;;;;;5067474;28;20040;-75
2022/06/12 08:05:30;;;;;;;4.15;1.30;;;19.50;99.90;;;;;;5071394;28;20162;-75
2022/06/12 08:07:56;;;;;;;;;;;19.80;99.90;;;;;;5054985;28;20532;-74
2022/06/12 08:10:21;;;;;;;10.95;2.55;;;19.50;99.90;;;;;;5070575;28;19916;-75
2022/06/12 08:12:47;;;;;;;;;;;19.30;99.90;;;;;;5053961;28;20048;-74
2022/06/12 08:15:17;;;;;;;7.25;2.22;;;19.10;99.90;;;;;;5070181;28;20013;-74
2022/06/12 08:17:43;;;;;;;5.45;1.85;;;19.40;99.90;;;;;;5070684;28;20063;-75
2022/06/12 08:20:24;;;;;;;;;;;19.80;99.90;;;;;;5070332;28;20044;-74
2022/06/12 08:22:54;;;;;;;8.23;2.28;;;20.10;99.90;;;;;;5048893;28;19927;-75
2022/06/12 08:25:21;;;;;;;9.40;2.72;;;20.50;99.90;;;;;;5069107;28;20390;-75
2022/06/12 08:27:47;;;;;;;6.93;1.98;;;20.70;99.90;;;;;;5079809;28;20554;-74
2022/06/12 08:30:13;;;;;;;6.20;1.85;;;20.80;99.90;;;;;;5087295;28;20079;-75
2022/06/12 08:32:41;;;;;;;8.48;2.10;;;20.80;99.90;;;;;;5084701;28;20177;-74
2022/06/12 08:35:13;;;;;;;5.55;1.80;;;20.90;99.90;;;;;;5071278;28;20053;-75
2022/06/12 08:37:39;;;;;;;8.35;2.30;;;20.80;99.90;;;;;;5069873;28;20055;-77
2022/06/12 08:40:15;;;;;;;5.57;2.03;;;20.40;99.90;;;;;;5059798;28;20048;-74
2022/06/12 08:42:48;;;;;;;8.10;1.95;;;20.10;99.90;;;;;;5080667;28;20399;-74
2022/06/12 08:45:26;;;;;;;6.05;1.70;;;20.10;99.90;;;;;;5066372;28;20435;-75
2022/06/12 08:47:59;;;;;;;3.95;1.33;;;20.60;99.90;;;;;;5063990;28;20087;-74
2022/06/12 08:50:37;;;;;;;5.38;1.58;;;21.10;99.90;;;;;;5061914;28;20115;-74
2022/06/12 08:53:16;;;;;;;5.70;1.55;;;21.20;99.90;;;;;;5060661;28;20045;-75
2022/06/12 08:55:54;;;;;;;4.85;1.58;;;21.60;99.90;;;;;;5066352;28;20055;-74
2022/06/12 08:58:48;;;;;;;4.72;1.65;;;21.80;99.90;;;;;;5062060;28;20144;-75
2022/06/12 09:01:14;;;;;;;5.90;1.60;;;22.20;99.90;;;;;;5058509;28;20044;-70
2022/06/12 09:03:47;;;;;;;5.38;1.77;;;22.50;99.90;;;;;;5051877;28;20328;-70
2022/06/12 09:06:34;;;;;;;5.75;1.80;;;22.40;99.90;;;;;;5069545;28;20048;-70
2022/06/12 09:09:21;;;;;;;5.10;1.70;;;22.40;99.90;;;;;;5067509;28;20047;-74
2022/06/12 09:11:51;;;;;;;7.45;1.98;;;22.60;99.90;;;;;;5061352;28;20064;-75
2022/06/12 09:14:58;;;;;;;9.25;2.55;;;22.60;99.90;;;;;;5067902;28;20102;-74
2022/06/12 09:17:48;;;;;;;5.57;1.85;;;22.30;99.90;;;;;;5062716;28;20067;-70
2022/06/12 09:20:18;;;;;;;4.88;1.67;;;22.00;99.90;;;;;;5036350;28;20388;-70
2022/06/12 09:22:59;;;;;;;10.93;2.25;;;21.60;99.90;;;;;;5047890;28;20055;-70
2022/06/12 09:25:37;;;;;;;5.75;2.03;;;21.00;99.90;;;;;;5049849;28;20048;-70
2022/06/12 09:28:30;;;;;;;9.27;2.25;;;21.10;99.90;;;;;;5064334;28;20070;-70
2022/06/12 09:31:14;;;;;;;8.75;1.98;;;21.10;99.90;;;;;;5060287;28;20052;-74
2022/06/12 09:33:58;;;;;;;11.57;2.38;;;20.60;99.90;;;;;;5067693;28;20037;-74
2022/06/12 09:36:33;;;;;;;8.15;2.45;;;20.70;99.90;;;;;;5062591;28;20037;-74
2022/06/12 09:39:17;;;;;;;9.73;2.47;;;21.00;99.90;;;;;;5048792;28;20135;-74
2022/06/12 09:41:57;;;;;;;7.03;2.40;;;21.20;99.90;;;;;;5066370;28;20036;-73
2022/06/12 09:44:43;;;;;;;6.90;2.00;;;21.70;99.90;;;;;;5067226;28;20111;-73
2022/06/12 09:47:14;;;;;;;8.17;2.50;;;21.80;99.90;;;;;;5067414;28;20048;-73
2022/06/12 09:50:02;;;;;;;5.82;2.08;;;21.80;98.10;;;;;;5067128;28;20167;-73
2022/06/12 09:52:42;;;;;;;9.18;2.22;;;21.60;99.90;;;;;;5057520;28;20090;-73
2022/06/12 09:55:24;;;;;;;6.75;2.85;;;21.00;99.60;;;;;;5066673;28;20037;-72
2022/06/12 09:58:06;;;;;;;5.35;2.20;;;20.50;99.90;;;;;;5068033;28;20036;-73
2022/06/12 10:00:38;;;;;;;5.07;1.85;;;20.30;99.90;;;;;;5063578;28;20036;-75
2022/06/12 10:03:15;;;;;;;6.35;1.80;;;20.70;99.90;;;;;;5066955;28;20101;-76
2022/06/12 10:05:56;;;;;;;5.88;1.55;;;21.10;97.10;;;;;;5050572;28;20087;-76
2022/06/12 10:08:41;;;;;;;5.10;1.52;;;21.50;95.00;;;;;;5069349;28;20045;-75
2022/06/12 10:11:19;;;;;;;5.40;1.60;;;21.80;94.70;;;;;;5054680;28;20051;-75
2022/06/12 10:13:51;;;;;;;4.55;1.58;;;21.90;94.30;;;;;;5054670;28;20488;-74
2022/06/12 10:16:33;;;;;;;2.83;1.25;;;21.50;95.00;;;;;;5081247;28;20087;-74
2022/06/12 10:19:05;;;;;;;6.40;1.40;;;21.40;95.40;;;;;;5057314;28;20048;-74
2022/06/12 10:21:36;;;;;;;4.47;1.15;;;21.50;94.10;;;;;;5057969;28;20416;-74
2022/06/12 10:24:02;;;;;;;5.07;1.10;;;21.50;94.20;;;;;;5068456;28;20064;-74
2022/06/12 10:26:30;;;;;;;3.05;1.13;;;21.70;94.00;;;;;;5048489;28;20594;-74
2022/06/12 10:29:11;;;;;;;3.58;1.23;;;22.00;94.20;;;;;;5070089;28;20087;-73
2022/06/12 10:31:59;;;;;;;4.57;1.40;;;21.80;93.80;;;;;;5084972;28;20112;-73
2022/06/12 10:34:30;;;;;;;5.20;1.40;;;21.50;93.40;;;;;;5070485;28;20033;-73
2022/06/12 10:37:24;;;;;;;4.18;1.55;;;21.80;93.50;;;;;;5056681;28;20083;-73
2022/06/12 10:40:06;;;;;;;4.63;1.38;;;22.00;92.80;;;;;;5067121;28;20032;-73
2022/06/12 10:42:32;;;;;;;3.53;1.13;;;22.20;93.70;;;;;;5070302;28;20044;-72
2022/06/12 10:44:58;;;;;;;3.65;1.23;;;21.90;93.30;;;;;;5066593;28;20526;-73
2022/06/12 10:47:31;;;;;;;3.65;1.42;;;21.40;94.30;;;;;;5065179;28;20567;-73
2022/06/12 10:50:06;;;;;;;5.28;1.35;;;21.50;95.20;;;;;;5072083;28;20055;-73
2022/06/12 10:52:32;;;;;;;4.05;1.40;;;21.70;95.10;;;;;;5066342;28;20178;-72
2022/06/12 10:54:58;;;;;;;7.55;1.65;;;21.90;94.10;;;;;;5062919;28;20099;-73
2022/06/12 10:57:42;;;;;;;4.60;1.40;;;21.70;93.10;;;;;;5070505;28;20048;-73
2022/06/12 11:00:19;;;;;;;5.38;1.60;;;21.40;93.50;;;;;;5067640;28;20149;-73
2022/06/12 11:02:55;;;;;;;5.25;1.40;;;20.70;94.20;;;;;;5061411;28;20036;-73
2022/06/12 11:05:20;;;;;;;5.35;1.40;;;20.50;95.70;;;;;;5054332;28;20049;-73
2022/06/12 11:07:55;;;;;;;;;;;20.60;96.00;;;;;;5072686;28;20044;-73
2022/06/12 11:10:38;;;;;;;4.78;1.52;;;20.40;95.30;;;;;;5070922;28;19920;-72
2022/06/12 11:13:35;;;;;;;5.68;1.58;;;20.20;95.40;;;;;;5062102;28;20056;-72
2022/06/12 11:16:20;;;;;;;6.05;1.85;;;20.30;95.20;;;;;;5069760;28;20048;-72
2022/06/12 11:18:53;;;;;;;6.03;1.70;;;20.30;95.40;;;;;;5071409;28;20175;-72
2022/06/12 11:21:50;;;;;;;6.75;1.80;;;20.40;95.60;;;;;;5057999;28;20037;-72
2022/06/12 11:24:26;;;;;;;5.85;1.60;;;20.80;96.70;;;;;;5071466;28;20048;-72
2022/06/12 11:27:27;;;;;;;5.93;1.80;;;21.00;95.00;;;;;;5071499;28;20044;-76
2022/06/12 11:30:05;;;;;;;6.10;1.65;;;20.50;94.80;;;;;;5014411;28;20128;-74
2022/06/12 11:32:47;;;;;;;4.35;1.60;;;20.60;95.00;;;;;;5055017;28;20053;-74
2022/06/12 11:35:32;;;;;;;4.95;1.65;;;21.20;95.70;;;;;;5062830;28;20040;-76
2022/06/12 11:38:13;;;;;;;5.18;1.58;;;21.60;95.00;;;;;;5056202;28;20064;-76
2022/06/12 11:41:03;;;;;;;3.95;1.50;;;22.10;94.20;;;;;;5059962;28;20075;-76
2022/06/12 11:43:34;;;;;;;4.47;1.50;;;22.00;93.00;;;;;;5067058;28;20439;-75
2022/06/12 11:46:18;;;;;;;5.47;1.52;;;22.20;93.10;;;;;;5079967;28;20065;-74
2022/06/12 11:48:53;;;;;;;5.57;1.73;;;22.60;93.30;;;;;;5069523;28;20064;-74
2022/06/12 11:51:46;;;;;;;3.40;1.63;;;22.20;92.10;;;;;;5054516;28;20044;-74
2022/06/12 11:54:42;;;;;;;4.68;1.50;;;22.20;92.10;;;;;;5062603;28;20049;-76
2022/06/12 11:57:27;;;;;;;3.08;1.15;;;21.50;90.60;;;;;;5078469;28;20037;-77
2022/06/12 12:00:07;;;;;;;3.25;1.00;;;21.70;90.30;;;;;;5061904;28;20032;-76
2022/06/12 12:02:45;;;;;;;4.10;1.45;;;21.80;89.70;;;;;;5072058;28;20042;-77
2022/06/12 12:05:26;;;;;;;3.70;1.33;;;21.80;90.90;;;;;;5054412;28;20646;-76
2022/06/12 12:08:15;;;;;;;6.28;1.60;;;21.90;90.90;;;;;;5069553;28;20384;-76
2022/06/12 12:11:35;;;;;;;3.35;1.40;;;21.50;91.90;;;;;;5054980;28;20045;-75
2022/06/12 12:14:04;;;;;;;6.55;1.80;;;21.80;92.30;;;;;;5063209;28;20063;-76
2022/06/12 12:16:47;;;;;;;4.07;1.52;;;21.10;92.80;;;;;;5069665;28;20329;-77
2022/06/12 12:19:24;;;;;;;6.65;1.90;;;20.60;92.50;;;;;;5062726;28;20048;-76
2022/06/12 12:21:55;;;;;;;5.25;1.30;;;20.40;93.30;;;;;;5070451;28;20159;-76
2022/06/12 12:24:29;;;;;;;3.85;1.35;;;20.70;93.90;;;;;;5074797;28;20111;-76
2022/06/12 12:26:59;;;;;;;3.38;1.30;;;21.00;93.50;;;;;;5061248;28;20105;-76
2022/06/12 12:29:32;;;;;;;4.43;1.52;;;21.10;92.10;;;;;;5072749;28;20040;-78
2022/06/12 12:31:58;;;;;;;4.53;1.35;;;21.20;92.40;;;;;;5053325;28;20045;-77
2022/06/12 12:34:27;;;;;;;4.75;1.70;;;21.60;92.60;;;;;;5067735;28;20040;-77
2022/06/12 12:42:35;;;;;;;3.35;1.17;;;21.00;91.80;;;;;;5069904;28;20048;-79
2022/06/12 12:45:19;;;;;;;6.55;1.50;;;20.40;91.90;;;;;;5069185;28;20071;-78
2022/06/12 12:47:44;;;;;;;5.57;1.38;;;20.20;91.70;;;;;;5069888;28;20096;-77
2022/06/12 12:50:14;;;;;;;3.90;1.30;;;20.50;91.90;;;;;;5069573;28;20036;-77
2022/06/12 12:52:43;;;;;;;3.20;1.17;;;20.90;92.10;;;;;;5076298;28;20036;-78
2022/06/12 12:55:34;;;;;;;3.72;1.38;;;20.70;91.80;;;;;;5051434;28;20135;-77
2022/06/12 12:58:13;;;;;;;3.75;1.40;;;20.50;91.90;;;;;;5060484;28;20078;-77
2022/06/12 13:00:39;;;;;;;5.25;1.42;;;20.40;93.30;;;;;;5060921;28;20460;-76
2022/06/12 13:03:23;;;;;;;4.03;1.73;;;21.00;93.20;;;;;;5052820;28;20033;-76
2022/06/12 13:05:50;;;;;;;4.65;1.40;;;21.60;92.60;;;;;;5064547;28;20407;-76
2022/06/12 13:08:29;;;;;;;5.82;1.40;;;21.30;92.10;;;;;;5068567;28;20119;-77
2022/06/12 13:11:00;;;;;;;6.13;1.85;;;20.90;92.30;;;;;;5068976;28;20071;-77
2022/06/12 13:13:28;;;;;;;5.55;1.70;;;20.50;93.30;;;;;;5068900;28;20052;-75
2022/06/12 13:16:24;;;;;;;3.88;1.10;;;20.60;93.10;;;;;;5069924;28;20056;-76
2022/06/12 13:19:06;;;;;;;3.35;1.40;;;20.60;93.80;;;;;;5064994;28;20472;-77
2022/06/12 13:21:57;;;;;;;3.63;1.30;;;20.70;93.40;;;;;;5060480;28;20064;-76
2022/06/12 13:24:32;;;;;;;4.40;1.50;;;21.20;93.00;;;;;;5069249;28;20120;-76
2022/06/12 13:26:58;;;;;;;6.47;2.17;;;21.40;92.60;;;;;;5069591;28;20076;-76
2022/06/12 13:29:26;;;;;;;4.68;1.60;;;20.70;92.20;;;;;;5061730;28;20533;-77
2022/06/12 13:32:01;;;;;;;5.53;1.83;;;20.70;92.90;;;;;;5054473;28;20127;-77
2022/06/12 13:34:28;;;;;;;5.20;1.77;;;20.40;94.20;;;;;;5068738;28;20090;-77